Suederoog — ZDHC8 — position and weather

sailwx.info

Track history (hours):
 
Tides and Currents Weather Stations Pressure Air Temp Water Temp Dewpoint Dewpoint Depression Visibility Wind Speed Wind Dir Waves Ship Positions

Suederoog

Last reported at 2014-Aug-01 07:33 UTC. Time now 2014-Aug-01 07:58 UTC.
Position N 59°34' E 023°32'.

Length 161 m; draft 10.2 m.

Type: Ship (hazmat cat A). MMSI: 236300000.

Date/timePositionNaut miles runAvg speedWind from/ knotsBaromVisibWave heightAir tempDewpointWater temp
2014-Aug-01 07:33N 59°34' E 023°32'30416.6
2014-Jul-31 13:10N 56°02' E 016°43'1017.0
2014-Jul-31 12:33N 55°57' E 016°27'5316.8
2014-Jul-31 09:23N 55°31' E 015°04'1816.7
2014-Jul-31 08:19N 55°22' E 014°37'1316.6
2014-Jul-31 07:33N 55°12' E 014°23'5416.5
2014-Jul-31 04:15N 54°48' E 012°58'1216.8
2014-Jul-31 03:33N 54°44' E 012°39'1616.2
2014-Jul-31 02:33N 54°34' E 012°17'1514.6
2014-Jul-31 01:33N 54°25' E 011°58'1717.1
2014-Jul-31 00:33N 54°30' E 011°29'1817.3
2014-Jul-30 23:32N 54°35' E 011°00'52 7.1
2014-Jul-30 16:14N 54°16' E 009°37'12 6.6
2014-Jul-30 14:26N 54°09' E 009°21'6 6.7
2014-Jul-30 13:34N 54°03' E 009°18'7 6.8
2014-Jul-30 12:33N 53°57' E 009°14'4 4.4
2014-Jul-30 11:34N 53°54' E 009°09'2 1.6
2014-Jul-30 10:33N 53°53' E 009°06'9 9.4
2014-Jul-30 09:33N 53°50' E 009°21'1211.6
2014-Jul-30 08:34N 53°40' E 009°31'1211.7
2014-Jul-30 07:34N 53°33' E 009°47'4 4.0
2014-Jul-30 06:31N 53°32' E 009°54'0 0.0
2014-Jul-30 05:31N 53°32' E 009°54'0 0.0
2014-Jul-30 04:31N 53°32' E 009°54'0 0.0
2014-Jul-30 03:33N 53°32' E 009°54'0 0.0
2014-Jul-30 02:33N 53°32' E 009°54'0 0.0
2014-Jul-30 01:32N 53°32' E 009°54'0 0.0
2014-Jul-30 00:32N 53°32' E 009°54'0 0.0
2014-Jul-29 23:33N 53°32' E 009°54'0 0.0
2014-Jul-29 22:32N 53°32' E 009°54'0 0.0
2014-Jul-29 21:32N 53°32' E 009°54'0 0.0
2014-Jul-29 20:33N 53°32' E 009°54'0 0.0
2014-Jul-29 19:34N 53°32' E 009°54'0 0.0
2014-Jul-29 18:33N 53°32' E 009°54'0 0.1
2014-Jul-29 17:34N 53°32' E 009°54'2 1.6
2014-Jul-29 16:30N 53°32' E 009°57'0 0.0
2014-Jul-29 15:31N 53°32' E 009°57'0 0.0
2014-Jul-29 14:33N 53°32' E 009°57'0 0.0
2014-Jul-29 13:30N 53°32' E 009°57'0 0.0
2014-Jul-29 12:30N 53°32' E 009°57'0 0.0
2014-Jul-29 11:32N 53°32' E 009°57'0 0.0
2014-Jul-29 10:32N 53°32' E 009°57'0 0.0
2014-Jul-29 09:31N 53°32' E 009°57'0 0.0
2014-Jul-29 08:32N 53°32' E 009°57'0 0.0
2014-Jul-29 07:31N 53°32' E 009°57'0 0.0
2014-Jul-29 06:28N 53°32' E 009°57'0 0.0
2014-Jul-29 05:32N 53°32' E 009°57'0 0.0
2014-Jul-29 04:32N 53°32' E 009°57'0 0.0
2014-Jul-29 03:32N 53°32' E 009°57'0 0.0
2014-Jul-29 02:29N 53°32' E 009°57'0 0.0
2014-Jul-29 01:29N 53°32' E 009°57'0 0.0
2014-Jul-29 00:30N 53°32' E 009°57'0 0.0
2014-Jul-28 23:29N 53°32' E 009°57'0 0.0
2014-Jul-28 22:29N 53°32' E 009°57'0 0.0
2014-Jul-28 21:29N 53°32' E 009°57'0 0.0
2014-Jul-28 20:32N 53°32' E 009°57'0 0.0
2014-Jul-28 19:32N 53°32' E 009°57'0 0.0
2014-Jul-28 18:32N 53°32' E 009°57'0 0.0
2014-Jul-28 17:33N 53°32' E 009°57'0 0.0
2014-Jul-28 16:33N 53°32' E 009°57'0 0.0
2014-Jul-28 15:33N 53°32' E 009°57'0 0.0
2014-Jul-28 14:33N 53°32' E 009°57'0 0.0
2014-Jul-28 13:33N 53°32' E 009°57'0 0.0
2014-Jul-28 12:33N 53°32' E 009°57'0 0.0
2014-Jul-28 11:33N 53°32' E 009°57'0 0.0
2014-Jul-28 10:33N 53°32' E 009°57'0 0.0
2014-Jul-28 09:33N 53°32' E 009°57'0 0.0
2014-Jul-28 08:27N 53°32' E 009°57'0 0.0
2014-Jul-28 07:33N 53°32' E 009°57'0 0.0
2014-Jul-28 06:33N 53°32' E 009°57'2 2.0
2014-Jul-28 05:33N 53°32' E 009°54'1110.8
2014-Jul-28 04:33N 53°35' E 009°36'1515.2
2014-Jul-28 03:34N 53°48' E 009°23'8 7.4
2014-Jul-28 02:29N 53°53' E 009°12'0 0.0
2014-Jul-28 01:31N 53°53' E 009°12'0 0.0
2014-Jul-28 00:28N 53°53' E 009°12'2 2.1
2014-Jul-27 23:33N 53°54' E 009°09'3 3.1
2014-Jul-27 22:33N 53°56' E 009°12'7 6.8
2014-Jul-27 21:33N 54°02' E 009°18'7 6.9
2014-Jul-27 20:28N 54°09' E 009°22'6 5.8
2014-Jul-27 19:26N 54°11' E 009°31'43 5.2
2014-Jul-27 11:12N 54°34' E 010°34'811.5
2014-Jul-27 10:31N 54°35' E 010°48'1111.4
2014-Jul-27 09:34N 54°36' E 011°06'1212.0
2014-Jul-27 08:33N 54°32' E 011°26'1211.5
2014-Jul-27 07:33N 54°26' E 011°43'1111.5
2014-Jul-27 06:34N 54°26' E 012°03'1010.2
2014-Jul-27 05:34N 54°34' E 012°15'1615.8
2014-Jul-27 04:33N 54°45' E 012°35'1917.1
2014-Jul-27 03:27N 54°52' E 013°04'1617.5
2014-Jul-27 02:33N 54°57' E 013°30'1717.3
2014-Jul-27 01:34N 55°03' E 013°59'1717.0
2014-Jul-27 00:33N 55°15' E 014°20'1717.2
2014-Jul-26 23:33N 55°28' E 014°40'1716.9
2014-Jul-26 22:34N 55°38' E 015°04'1717.3
2014-Jul-26 21:34N 55°46' E 015°31'1817.7
2014-Jul-26 20:33N 55°54' E 015°59'1817.7
2014-Jul-26 19:33N 56°03' E 016°26'1817.7
2014-Jul-26 18:33N 56°12' E 016°53'1717.4
2014-Jul-26 17:33N 56°23' E 017°19'1717.3
2014-Jul-26 16:33N 56°33' E 017°44'1717.3
2014-Jul-26 15:33N 56°43' E 018°09'1717.4
2014-Jul-26 14:33N 56°55' E 018°32'1717.4
2014-Jul-26 13:33N 57°09' E 018°51'1717.4
2014-Jul-26 12:33N 57°23' E 019°10'11217.4
2014-Jul-26 06:06N 58°54' E 021°16'1017.7
2014-Jul-26 05:33N 59°01' E 021°27'1717.3
2014-Jul-26 04:33N 59°14' E 021°49'1717.2
2014-Jul-26 03:33N 59°25' E 022°16'1717.0
2014-Jul-26 02:33N 59°32' E 022°46'1717.5
2014-Jul-26 01:33N 59°37' E 023°20'1717.4
2014-Jul-26 00:33N 59°42' E 023°53'1817.5
2014-Jul-25 23:33N 59°47' E 024°26'1717.2
2014-Jul-25 22:33N 59°51' E 024°60'1717.3
2014-Jul-25 21:33N 59°54' E 025°33'1716.8
2014-Jul-25 20:33N 60°01' E 026°04'1616.4
2014-Jul-25 19:33N 60°13' E 026°24'1514.9
2014-Jul-25 18:33N 60°23' E 026°48'4 4.1
2014-Jul-25 17:32N 60°25' E 026°55'0 0.0
2014-Jul-25 16:32N 60°25' E 026°55'0 0.0
2014-Jul-25 15:32N 60°25' E 026°55'0 0.0
2014-Jul-25 14:32N 60°25' E 026°55'0 0.0
2014-Jul-25 13:32N 60°25' E 026°55'0 0.0
2014-Jul-25 12:32N 60°25' E 026°55'0 0.0
2014-Jul-25 11:32N 60°25' E 026°55'0 0.0
2014-Jul-25 10:29N 60°25' E 026°55'0 0.0
2014-Jul-25 09:32N 60°25' E 026°55'0 0.0
2014-Jul-25 08:32N 60°25' E 026°55'0 0.0
2014-Jul-25 07:32N 60°25' E 026°55'0 0.0
2014-Jul-25 06:32N 60°25' E 026°55'0 0.0
2014-Jul-25 05:33N 60°25' E 026°55'8 7.7
2014-Jul-25 04:33N 60°22' E 026°41'1313.3
2014-Jul-25 03:33N 60°12' E 026°23'1615.9
2014-Jul-25 02:33N 60°02' E 026°47'1716.4
2014-Jul-25 01:32N 60°05' E 027°20'8813.7
2014-Jul-24 19:10N 59°54' E 030°14'0 0.1
2014-Jul-24 18:27N 59°54' E 030°14'0 0.0
2014-Jul-24 17:31N 59°54' E 030°14'0 0.0
2014-Jul-24 14:14N 59°54' E 030°14'0 0.0
2014-Jul-24 13:29N 59°54' E 030°14'0 0.0
2014-Jul-24 12:33N 59°54' E 030°14'1 1.1
2014-Jul-24 11:31N 59°53' E 030°12'0 0.0
2014-Jul-23 23:09N 59°53' E 030°12'0 0.0
2014-Jul-23 22:33N 59°53' E 030°12'0 0.0
2014-Jul-23 20:23N 59°53' E 030°12'0 0.0
2014-Jul-23 19:10N 59°53' E 030°12'0 0.0
2014-Jul-23 18:23N 59°53' E 030°12'2 0.3
2014-Jul-23 13:31N 59°53' E 030°09'62 6.1
2014-Jul-23 03:20N 60°08' E 028°09'911.0
2014-Jul-23 02:33N 60°11' E 027°53'1110.6
2014-Jul-23 01:33N 60°07' E 027°33'1111.1
2014-Jul-23 00:33N 60°01' E 027°14'1010.3
2014-Jul-22 23:33N 59°59' E 026°54'1110.6
2014-Jul-22 22:33N 59°59' E 026°33'1010.4
2014-Jul-22 21:33N 59°56' E 026°12'4610.8
2014-Jul-22 17:14N 59°45' E 024°42'710.7
2014-Jul-22 16:33N 59°44' E 024°28'1110.8
2014-Jul-22 15:33N 59°41' E 024°08'1110.5
2014-Jul-22 14:31N 59°37' E 023°47'1010.4
2014-Jul-22 13:33N 59°34' E 023°29'3210.8
2014-Jul-22 10:33N 59°22' E 022°29'2712.6
2014-Jul-22 08:24N 59°05' E 021°48'  
Track history (hours):
 
Tides and Currents Weather Stations Pressure Air Temp Water Temp Dewpoint Dewpoint Depression Visibility Wind Speed Wind Dir Waves Ship Positions

Suederoog

Last reported at 2014-Aug-01 07:33 UTC. Time now 2014-Aug-01 07:58 UTC.
Position N 59°34' E 023°32'.

Length 161 m; draft 10.2 m.

Type: Ship (hazmat cat A). MMSI: 236300000.

Date/timePositionNaut miles runAvg speedWind from/ knotsBaromVisibWave heightAir tempDewpointWater temp
2014-Aug-01 07:33N 59°34' E 023°32'30416.6
2014-Jul-31 13:10N 56°02' E 016°43'1017.0
2014-Jul-31 12:33N 55°57' E 016°27'5316.8
2014-Jul-31 09:23N 55°31' E 015°04'1816.7
2014-Jul-31 08:19N 55°22' E 014°37'1316.6
2014-Jul-31 07:33N 55°12' E 014°23'5416.5
2014-Jul-31 04:15N 54°48' E 012°58'1216.8
2014-Jul-31 03:33N 54°44' E 012°39'1616.2
2014-Jul-31 02:33N 54°34' E 012°17'1514.6
2014-Jul-31 01:33N 54°25' E 011°58'1717.1
2014-Jul-31 00:33N 54°30' E 011°29'1817.3
2014-Jul-30 23:32N 54°35' E 011°00'52 7.1
2014-Jul-30 16:14N 54°16' E 009°37'12 6.6
2014-Jul-30 14:26N 54°09' E 009°21'6 6.7
2014-Jul-30 13:34N 54°03' E 009°18'7 6.8
2014-Jul-30 12:33N 53°57' E 009°14'4 4.4
2014-Jul-30 11:34N 53°54' E 009°09'2 1.6
2014-Jul-30 10:33N 53°53' E 009°06'9 9.4
2014-Jul-30 09:33N 53°50' E 009°21'1211.6
2014-Jul-30 08:34N 53°40' E 009°31'1211.7
2014-Jul-30 07:34N 53°33' E 009°47'4 4.0
2014-Jul-30 06:31N 53°32' E 009°54'0 0.0
2014-Jul-30 05:31N 53°32' E 009°54'0 0.0
2014-Jul-30 04:31N 53°32' E 009°54'0 0.0
2014-Jul-30 03:33N 53°32' E 009°54'0 0.0
2014-Jul-30 02:33N 53°32' E 009°54'0 0.0
2014-Jul-30 01:32N 53°32' E 009°54'0 0.0
2014-Jul-30 00:32N 53°32' E 009°54'0 0.0
2014-Jul-29 23:33N 53°32' E 009°54'0 0.0
2014-Jul-29 22:32N 53°32' E 009°54'0 0.0
2014-Jul-29 21:32N 53°32' E 009°54'0 0.0
2014-Jul-29 20:33N 53°32' E 009°54'0 0.0
2014-Jul-29 19:34N 53°32' E 009°54'0 0.0
2014-Jul-29 18:33N 53°32' E 009°54'0 0.1
2014-Jul-29 17:34N 53°32' E 009°54'2 1.6
2014-Jul-29 16:30N 53°32' E 009°57'0 0.0
2014-Jul-29 15:31N 53°32' E 009°57'0 0.0
2014-Jul-29 14:33N 53°32' E 009°57'0 0.0
2014-Jul-29 13:30N 53°32' E 009°57'0 0.0
2014-Jul-29 12:30N 53°32' E 009°57'0 0.0
2014-Jul-29 11:32N 53°32' E 009°57'0 0.0
2014-Jul-29 10:32N 53°32' E 009°57'0 0.0
2014-Jul-29 09:31N 53°32' E 009°57'0 0.0
2014-Jul-29 08:32N 53°32' E 009°57'0 0.0
2014-Jul-29 07:31N 53°32' E 009°57'0 0.0
2014-Jul-29 06:28N 53°32' E 009°57'0 0.0
2014-Jul-29 05:32N 53°32' E 009°57'0 0.0
2014-Jul-29 04:32N 53°32' E 009°57'0 0.0
2014-Jul-29 03:32N 53°32' E 009°57'0 0.0
2014-Jul-29 02:29N 53°32' E 009°57'0 0.0
2014-Jul-29 01:29N 53°32' E 009°57'0 0.0
2014-Jul-29 00:30N 53°32' E 009°57'0 0.0
2014-Jul-28 23:29N 53°32' E 009°57'0 0.0
2014-Jul-28 22:29N 53°32' E 009°57'0 0.0
2014-Jul-28 21:29N 53°32' E 009°57'0 0.0
2014-Jul-28 20:32N 53°32' E 009°57'0 0.0
2014-Jul-28 19:32N 53°32' E 009°57'0 0.0
2014-Jul-28 18:32N 53°32' E 009°57'0 0.0
2014-Jul-28 17:33N 53°32' E 009°57'0 0.0
2014-Jul-28 16:33N 53°32' E 009°57'0 0.0
2014-Jul-28 15:33N 53°32' E 009°57'0 0.0
2014-Jul-28 14:33N 53°32' E 009°57'0 0.0
2014-Jul-28 13:33N 53°32' E 009°57'0 0.0
2014-Jul-28 12:33N 53°32' E 009°57'0 0.0
2014-Jul-28 11:33N 53°32' E 009°57'0 0.0
2014-Jul-28 10:33N 53°32' E 009°57'0 0.0
2014-Jul-28 09:33N 53°32' E 009°57'0 0.0
2014-Jul-28 08:27N 53°32' E 009°57'0 0.0
2014-Jul-28 07:33N 53°32' E 009°57'0 0.0
2014-Jul-28 06:33N 53°32' E 009°57'2 2.0
2014-Jul-28 05:33N 53°32' E 009°54'1110.8
2014-Jul-28 04:33N 53°35' E 009°36'1515.2
2014-Jul-28 03:34N 53°48' E 009°23'8 7.4
2014-Jul-28 02:29N 53°53' E 009°12'0 0.0
2014-Jul-28 01:31N 53°53' E 009°12'0 0.0
2014-Jul-28 00:28N 53°53' E 009°12'2 2.1
2014-Jul-27 23:33N 53°54' E 009°09'3 3.1
2014-Jul-27 22:33N 53°56' E 009°12'7 6.8
2014-Jul-27 21:33N 54°02' E 009°18'7 6.9
2014-Jul-27 20:28N 54°09' E 009°22'6 5.8
2014-Jul-27 19:26N 54°11' E 009°31'43 5.2
2014-Jul-27 11:12N 54°34' E 010°34'811.5
2014-Jul-27 10:31N 54°35' E 010°48'1111.4
2014-Jul-27 09:34N 54°36' E 011°06'1212.0
2014-Jul-27 08:33N 54°32' E 011°26'1211.5
2014-Jul-27 07:33N 54°26' E 011°43'1111.5
2014-Jul-27 06:34N 54°26' E 012°03'1010.2
2014-Jul-27 05:34N 54°34' E 012°15'1615.8
2014-Jul-27 04:33N 54°45' E 012°35'1917.1
2014-Jul-27 03:27N 54°52' E 013°04'1617.5
2014-Jul-27 02:33N 54°57' E 013°30'1717.3
2014-Jul-27 01:34N 55°03' E 013°59'1717.0
2014-Jul-27 00:33N 55°15' E 014°20'1717.2
2014-Jul-26 23:33N 55°28' E 014°40'1716.9
2014-Jul-26 22:34N 55°38' E 015°04'1717.3
2014-Jul-26 21:34N 55°46' E 015°31'1817.7
2014-Jul-26 20:33N 55°54' E 015°59'1817.7
2014-Jul-26 19:33N 56°03' E 016°26'1817.7
2014-Jul-26 18:33N 56°12' E 016°53'1717.4
2014-Jul-26 17:33N 56°23' E 017°19'1717.3
2014-Jul-26 16:33N 56°33' E 017°44'1717.3
2014-Jul-26 15:33N 56°43' E 018°09'1717.4
2014-Jul-26 14:33N 56°55' E 018°32'1717.4
2014-Jul-26 13:33N 57°09' E 018°51'1717.4
2014-Jul-26 12:33N 57°23' E 019°10'11217.4
2014-Jul-26 06:06N 58°54' E 021°16'1017.7
2014-Jul-26 05:33N 59°01' E 021°27'1717.3
2014-Jul-26 04:33N 59°14' E 021°49'1717.2
2014-Jul-26 03:33N 59°25' E 022°16'1717.0
2014-Jul-26 02:33N 59°32' E 022°46'1717.5
2014-Jul-26 01:33N 59°37' E 023°20'1717.4
2014-Jul-26 00:33N 59°42' E 023°53'1817.5
2014-Jul-25 23:33N 59°47' E 024°26'1717.2
2014-Jul-25 22:33N 59°51' E 024°60'1717.3
2014-Jul-25 21:33N 59°54' E 025°33'1716.8
2014-Jul-25 20:33N 60°01' E 026°04'1616.4
2014-Jul-25 19:33N 60°13' E 026°24'1514.9
2014-Jul-25 18:33N 60°23' E 026°48'4 4.1
2014-Jul-25 17:32N 60°25' E 026°55'0 0.0
2014-Jul-25 16:32N 60°25' E 026°55'0 0.0
2014-Jul-25 15:32N 60°25' E 026°55'0 0.0
2014-Jul-25 14:32N 60°25' E 026°55'0 0.0
2014-Jul-25 13:32N 60°25' E 026°55'0 0.0
2014-Jul-25 12:32N 60°25' E 026°55'0 0.0
2014-Jul-25 11:32N 60°25' E 026°55'0 0.0
2014-Jul-25 10:29N 60°25' E 026°55'0 0.0
2014-Jul-25 09:32N 60°25' E 026°55'0 0.0
2014-Jul-25 08:32N 60°25' E 026°55'0 0.0
2014-Jul-25 07:32N 60°25' E 026°55'0 0.0
2014-Jul-25 06:32N 60°25' E 026°55'0 0.0
2014-Jul-25 05:33N 60°25' E 026°55'8 7.7
2014-Jul-25 04:33N 60°22' E 026°41'1313.3
2014-Jul-25 03:33N 60°12' E 026°23'1615.9
2014-Jul-25 02:33N 60°02' E 026°47'1716.4
2014-Jul-25 01:32N 60°05' E 027°20'8813.7
2014-Jul-24 19:10N 59°54' E 030°14'0 0.1
2014-Jul-24 18:27N 59°54' E 030°14'0 0.0
2014-Jul-24 17:31N 59°54' E 030°14'0 0.0
2014-Jul-24 14:14N 59°54' E 030°14'0 0.0
2014-Jul-24 13:29N 59°54' E 030°14'0 0.0
2014-Jul-24 12:33N 59°54' E 030°14'1 1.1
2014-Jul-24 11:31N 59°53' E 030°12'0 0.0
2014-Jul-23 23:09N 59°53' E 030°12'0 0.0
2014-Jul-23 22:33N 59°53' E 030°12'0 0.0
2014-Jul-23 20:23N 59°53' E 030°12'0 0.0
2014-Jul-23 19:10N 59°53' E 030°12'0 0.0
2014-Jul-23 18:23N 59°53' E 030°12'2 0.3
2014-Jul-23 13:31N 59°53' E 030°09'62 6.1
2014-Jul-23 03:20N 60°08' E 028°09'911.0
2014-Jul-23 02:33N 60°11' E 027°53'1110.6
2014-Jul-23 01:33N 60°07' E 027°33'1111.1
2014-Jul-23 00:33N 60°01' E 027°14'1010.3
2014-Jul-22 23:33N 59°59' E 026°54'1110.6
2014-Jul-22 22:33N 59°59' E 026°33'1010.4
2014-Jul-22 21:33N 59°56' E 026°12'4610.8
2014-Jul-22 17:14N 59°45' E 024°42'710.7
2014-Jul-22 16:33N 59°44' E 024°28'1110.8
2014-Jul-22 15:33N 59°41' E 024°08'1110.5
2014-Jul-22 14:31N 59°37' E 023°47'1010.4
2014-Jul-22 13:33N 59°34' E 023°29'3210.8
2014-Jul-22 10:33N 59°22' E 022°29'2712.6
2014-Jul-22 08:24N 59°05' E 021°48'  

Dump ship's entire track history